Sanko Kairyu — JI3709 — position and weather

sailwx.info

Track history (hours):
 
Tides and Currents Weather Stations Pressure Air Temp Water Temp Dewpoint Dewpoint Depression Visibility Wind Speed Wind Dir Waves Ship Positions

Sanko Kairyu

Last reported at 2017-Dec-09 19:28 UTC. Time now 2017-Dec-14 12:55 UTC.
Position N 34°49' E 136°45'.

Length 38 m.

Type: Tanker. MMSI: 431301672.

Date/timePositionNaut miles runAvg speedWind from/ knotsBaromVisibWave heightAir tempDewpointWater temp
2017-Dec-09 19:28N 34°49' E 136°45'510.0
2017-Dec-09 19:00N 34°54' E 136°45'5 9.9
2017-Dec-09 18:30N 34°58' E 136°48'510.3
2017-Dec-09 18:00N 35°03' E 136°51'4 7.6
2017-Dec-09 17:30N 35°06' E 136°54'0 0.0
2017-Dec-09 16:58N 35°06' E 136°54'0 0.0
2017-Dec-09 16:26N 35°06' E 136°54'0 0.1
2017-Dec-09 15:49N 35°06' E 136°54'0 0.0
2017-Dec-09 15:25N 35°06' E 136°54'0 0.1
2017-Dec-09 14:57N 35°06' E 136°54'3 5.7
2017-Dec-09 14:30N 35°04' E 136°52'4 8.6
2017-Dec-09 14:00N 34°60' E 136°50'4 8.8
2017-Dec-09 13:30N 34°56' E 136°47'5 8.9
2017-Dec-09 13:00N 34°52' E 136°47'5 9.3
2017-Dec-09 12:29N 34°47' E 136°47'92 2.9
2017-Dec-08 04:25N 34°08' E 135°06'4 8.3
2017-Dec-08 03:57N 34°09' E 135°10'2 0.6
2017-Dec-08 01:06N 34°09' E 135°12'0 0.3
2017-Dec-08 00:55N 34°09' E 135°12'7 7.5
2017-Dec-08 00:02N 34°12' E 135°05'2 9.1
2017-Dec-07 23:48N 34°14' E 135°04'2 7.8
2017-Dec-07 23:30N 34°16' E 135°03'4 8.0
2017-Dec-07 23:00N 34°20' E 135°05'4 8.9
2017-Dec-07 22:30N 34°23' E 135°09'5 9.7
2017-Dec-07 22:01N 34°27' E 135°13'5 9.3
2017-Dec-07 21:30N 34°30' E 135°17'5 9.1
2017-Dec-07 21:00N 34°33' E 135°21'5 9.1
2017-Dec-07 20:30N 34°36' E 135°25'3 6.5
2017-Dec-07 20:00N 34°39' E 135°27'0 0.1
2017-Dec-07 19:30N 34°39' E 135°27'0 0.0
2017-Dec-07 19:00N 34°39' E 135°27'0 0.0
2017-Dec-07 18:30N 34°39' E 135°27'0 0.0
2017-Dec-07 18:00N 34°39' E 135°27'0 0.0
2017-Dec-07 17:30N 34°39' E 135°27'0 0.0
2017-Dec-07 17:00N 34°39' E 135°27'0 0.0
2017-Dec-07 16:30N 34°39' E 135°27'0 0.0
2017-Dec-07 16:00N 34°39' E 135°27'0 0.0
2017-Dec-07 15:30N 34°39' E 135°27'0 0.0
2017-Dec-07 15:00N 34°39' E 135°27'0 0.0
2017-Dec-07 14:30N 34°39' E 135°27'0 0.0
2017-Dec-07 14:00N 34°39' E 135°27'0 0.0
2017-Dec-07 13:30N 34°39' E 135°27'0 0.0
2017-Dec-07 13:00N 34°39' E 135°27'0 0.0
2017-Dec-07 08:01N 34°39' E 135°27'0 0.0
2017-Dec-07 07:55N 34°39' E 135°27'  
2017-Dec-03 03:04N 34°39' E 135°27'0 0.0
2017-Dec-03 02:58N 34°39' E 135°27'0 0.0
2017-Dec-03 02:28N 34°39' E 135°27'0 0.0
2017-Dec-03 01:58N 34°39' E 135°27'0 0.0
2017-Dec-03 01:28N 34°39' E 135°27'0 0.0
2017-Dec-03 00:58N 34°39' E 135°27'0 0.0
2017-Dec-03 00:28N 34°39' E 135°27'0 0.0
2017-Dec-03 00:00N 34°39' E 135°27'1 2.9
2017-Dec-02 23:30N 34°38' E 135°26'4 8.9
2017-Dec-02 23:00N 34°35' E 135°22'5 9.9
2017-Dec-02 22:30N 34°31' E 135°18'5 9.9
2017-Dec-02 22:00N 34°28' E 135°13'510.5
2017-Dec-02 21:30N 34°24' E 135°09'510.8
2017-Dec-02 21:00N 34°20' E 135°05'610.9
2017-Dec-02 20:28N 34°14' E 135°03'510.4
2017-Dec-02 20:00N 34°09' E 135°03'5 9.9
2017-Dec-02 19:30N 34°04' E 135°03'96 5.2
2017-Dec-02 00:49N 34°50' E 136°46'310.5
2017-Dec-02 00:30N 34°53' E 136°46'510.1
2017-Dec-02 00:00N 34°58' E 136°48'510.3
2017-Dec-01 23:30N 35°02' E 136°51'4 8.5
2017-Dec-01 22:59N 35°06' E 136°54'0 0.1
2017-Dec-01 22:30N 35°06' E 136°54'0 0.0
2017-Dec-01 22:00N 35°06' E 136°54'0 0.0
2017-Dec-01 21:30N 35°06' E 136°54'0 0.0
2017-Dec-01 20:57N 35°06' E 136°54'0 0.0
2017-Dec-01 20:30N 35°06' E 136°54'0 0.0
2017-Dec-01 20:00N 35°06' E 136°54'0 0.0
2017-Dec-01 19:30N 35°06' E 136°54'0 0.0
2017-Dec-01 18:49N 35°06' E 136°54'0 0.0
2017-Dec-01 18:25N 35°06' E 136°54'0 0.0
2017-Dec-01 17:55N 35°06' E 136°54'0 0.0
2017-Dec-01 17:26N 35°06' E 136°54'0 0.0
2017-Dec-01 16:56N 35°06' E 136°54'0 0.0
2017-Dec-01 16:26N 35°06' E 136°54'0 0.0
2017-Dec-01 16:00N 35°06' E 136°54'0 0.0
2017-Dec-01 15:30N 35°06' E 136°54'0 0.0
2017-Dec-01 15:00N 35°06' E 136°54'0 0.0
2017-Dec-01 14:30N 35°06' E 136°54'0 0.0
2017-Dec-01 14:00N 35°06' E 136°54'0 0.0
2017-Dec-01 13:30N 35°06' E 136°54'0 0.0
2017-Dec-01 13:00N 35°06' E 136°54'0 0.0
2017-Dec-01 12:30N 35°06' E 136°54'0 0.1
2017-Dec-01 11:59N 35°06' E 136°54'0 0.1
2017-Dec-01 11:27N 35°06' E 136°54'0 0.1
2017-Dec-01 10:55N 35°06' E 136°54'0 0.0
2017-Dec-01 10:29N 35°06' E 136°54'0 0.0
2017-Dec-01 10:00N 35°06' E 136°54'2 4.7
2017-Dec-01 09:30N 35°04' E 136°52'4 8.6
2017-Dec-01 09:00N 35°00' E 136°50'4 8.3
2017-Dec-01 08:30N 34°57' E 136°47'4 8.0
2017-Dec-01 08:00N 34°53' E 136°47'4 7.8
2017-Dec-01 07:30N 34°49' E 136°48'4 7.9
2017-Dec-01 07:00N 34°45' E 136°48'91 3.3
2017-Nov-30 03:51N 34°08' E 135°07'3 8.7
2017-Nov-30 03:30N 34°09' E 135°11'2 2.6
2017-Nov-30 02:52N 34°09' E 135°12'0 0.0
2017-Nov-30 02:13N 34°09' E 135°12'0 0.0
2017-Nov-30 01:52N 34°09' E 135°12'0 0.0
2017-Nov-30 01:22N 34°09' E 135°12'0 0.0
2017-Nov-30 00:55N 34°09' E 135°12'0 0.1
2017-Nov-30 00:29N 34°09' E 135°12'6 8.3
2017-Nov-29 23:49N 34°10' E 135°06'4 8.5
2017-Nov-29 23:18N 34°14' E 135°04'3 9.1
2017-Nov-29 22:59N 34°17' E 135°04'4 9.5
2017-Nov-29 22:30N 34°21' E 135°06'5 9.1
2017-Nov-29 22:00N 34°24' E 135°10'4 9.0
2017-Nov-29 21:30N 34°28' E 135°14'5 9.1
2017-Nov-29 21:00N 34°31' E 135°18'5 9.4
2017-Nov-29 20:30N 34°34' E 135°22'4 8.9
2017-Nov-29 20:00N 34°37' E 135°26'  
Track history (hours):
 
Tides and Currents Weather Stations Pressure Air Temp Water Temp Dewpoint Dewpoint Depression Visibility Wind Speed Wind Dir Waves Ship Positions

Sanko Kairyu

Last reported at 2017-Dec-09 19:28 UTC. Time now 2017-Dec-14 12:55 UTC.
Position N 34°49' E 136°45'.

Length 38 m.

Type: Tanker. MMSI: 431301672.

Date/timePositionNaut miles runAvg speedWind from/ knotsBaromVisibWave heightAir tempDewpointWater temp
2017-Dec-09 19:28N 34°49' E 136°45'510.0
2017-Dec-09 19:00N 34°54' E 136°45'5 9.9
2017-Dec-09 18:30N 34°58' E 136°48'510.3
2017-Dec-09 18:00N 35°03' E 136°51'4 7.6
2017-Dec-09 17:30N 35°06' E 136°54'0 0.0
2017-Dec-09 16:58N 35°06' E 136°54'0 0.0
2017-Dec-09 16:26N 35°06' E 136°54'0 0.1
2017-Dec-09 15:49N 35°06' E 136°54'0 0.0
2017-Dec-09 15:25N 35°06' E 136°54'0 0.1
2017-Dec-09 14:57N 35°06' E 136°54'3 5.7
2017-Dec-09 14:30N 35°04' E 136°52'4 8.6
2017-Dec-09 14:00N 34°60' E 136°50'4 8.8
2017-Dec-09 13:30N 34°56' E 136°47'5 8.9
2017-Dec-09 13:00N 34°52' E 136°47'5 9.3
2017-Dec-09 12:29N 34°47' E 136°47'92 2.9
2017-Dec-08 04:25N 34°08' E 135°06'4 8.3
2017-Dec-08 03:57N 34°09' E 135°10'2 0.6
2017-Dec-08 01:06N 34°09' E 135°12'0 0.3
2017-Dec-08 00:55N 34°09' E 135°12'7 7.5
2017-Dec-08 00:02N 34°12' E 135°05'2 9.1
2017-Dec-07 23:48N 34°14' E 135°04'2 7.8
2017-Dec-07 23:30N 34°16' E 135°03'4 8.0
2017-Dec-07 23:00N 34°20' E 135°05'4 8.9
2017-Dec-07 22:30N 34°23' E 135°09'5 9.7
2017-Dec-07 22:01N 34°27' E 135°13'5 9.3
2017-Dec-07 21:30N 34°30' E 135°17'5 9.1
2017-Dec-07 21:00N 34°33' E 135°21'5 9.1
2017-Dec-07 20:30N 34°36' E 135°25'3 6.5
2017-Dec-07 20:00N 34°39' E 135°27'0 0.1
2017-Dec-07 19:30N 34°39' E 135°27'0 0.0
2017-Dec-07 19:00N 34°39' E 135°27'0 0.0
2017-Dec-07 18:30N 34°39' E 135°27'0 0.0
2017-Dec-07 18:00N 34°39' E 135°27'0 0.0
2017-Dec-07 17:30N 34°39' E 135°27'0 0.0
2017-Dec-07 17:00N 34°39' E 135°27'0 0.0
2017-Dec-07 16:30N 34°39' E 135°27'0 0.0
2017-Dec-07 16:00N 34°39' E 135°27'0 0.0
2017-Dec-07 15:30N 34°39' E 135°27'0 0.0
2017-Dec-07 15:00N 34°39' E 135°27'0 0.0
2017-Dec-07 14:30N 34°39' E 135°27'0 0.0
2017-Dec-07 14:00N 34°39' E 135°27'0 0.0
2017-Dec-07 13:30N 34°39' E 135°27'0 0.0
2017-Dec-07 13:00N 34°39' E 135°27'0 0.0
2017-Dec-07 08:01N 34°39' E 135°27'0 0.0
2017-Dec-07 07:55N 34°39' E 135°27'  
2017-Dec-03 03:04N 34°39' E 135°27'0 0.0
2017-Dec-03 02:58N 34°39' E 135°27'0 0.0
2017-Dec-03 02:28N 34°39' E 135°27'0 0.0
2017-Dec-03 01:58N 34°39' E 135°27'0 0.0
2017-Dec-03 01:28N 34°39' E 135°27'0 0.0
2017-Dec-03 00:58N 34°39' E 135°27'0 0.0
2017-Dec-03 00:28N 34°39' E 135°27'0 0.0
2017-Dec-03 00:00N 34°39' E 135°27'1 2.9
2017-Dec-02 23:30N 34°38' E 135°26'4 8.9
2017-Dec-02 23:00N 34°35' E 135°22'5 9.9
2017-Dec-02 22:30N 34°31' E 135°18'5 9.9
2017-Dec-02 22:00N 34°28' E 135°13'510.5
2017-Dec-02 21:30N 34°24' E 135°09'510.8
2017-Dec-02 21:00N 34°20' E 135°05'610.9
2017-Dec-02 20:28N 34°14' E 135°03'510.4
2017-Dec-02 20:00N 34°09' E 135°03'5 9.9
2017-Dec-02 19:30N 34°04' E 135°03'96 5.2
2017-Dec-02 00:49N 34°50' E 136°46'310.5
2017-Dec-02 00:30N 34°53' E 136°46'510.1
2017-Dec-02 00:00N 34°58' E 136°48'510.3
2017-Dec-01 23:30N 35°02' E 136°51'4 8.5
2017-Dec-01 22:59N 35°06' E 136°54'0 0.1
2017-Dec-01 22:30N 35°06' E 136°54'0 0.0
2017-Dec-01 22:00N 35°06' E 136°54'0 0.0
2017-Dec-01 21:30N 35°06' E 136°54'0 0.0
2017-Dec-01 20:57N 35°06' E 136°54'0 0.0
2017-Dec-01 20:30N 35°06' E 136°54'0 0.0
2017-Dec-01 20:00N 35°06' E 136°54'0 0.0
2017-Dec-01 19:30N 35°06' E 136°54'0 0.0
2017-Dec-01 18:49N 35°06' E 136°54'0 0.0
2017-Dec-01 18:25N 35°06' E 136°54'0 0.0
2017-Dec-01 17:55N 35°06' E 136°54'0 0.0
2017-Dec-01 17:26N 35°06' E 136°54'0 0.0
2017-Dec-01 16:56N 35°06' E 136°54'0 0.0
2017-Dec-01 16:26N 35°06' E 136°54'0 0.0
2017-Dec-01 16:00N 35°06' E 136°54'0 0.0
2017-Dec-01 15:30N 35°06' E 136°54'0 0.0
2017-Dec-01 15:00N 35°06' E 136°54'0 0.0
2017-Dec-01 14:30N 35°06' E 136°54'0 0.0
2017-Dec-01 14:00N 35°06' E 136°54'0 0.0
2017-Dec-01 13:30N 35°06' E 136°54'0 0.0
2017-Dec-01 13:00N 35°06' E 136°54'0 0.0
2017-Dec-01 12:30N 35°06' E 136°54'0 0.1
2017-Dec-01 11:59N 35°06' E 136°54'0 0.1
2017-Dec-01 11:27N 35°06' E 136°54'0 0.1
2017-Dec-01 10:55N 35°06' E 136°54'0 0.0
2017-Dec-01 10:29N 35°06' E 136°54'0 0.0
2017-Dec-01 10:00N 35°06' E 136°54'2 4.7
2017-Dec-01 09:30N 35°04' E 136°52'4 8.6
2017-Dec-01 09:00N 35°00' E 136°50'4 8.3
2017-Dec-01 08:30N 34°57' E 136°47'4 8.0
2017-Dec-01 08:00N 34°53' E 136°47'4 7.8
2017-Dec-01 07:30N 34°49' E 136°48'4 7.9
2017-Dec-01 07:00N 34°45' E 136°48'91 3.3
2017-Nov-30 03:51N 34°08' E 135°07'3 8.7
2017-Nov-30 03:30N 34°09' E 135°11'2 2.6
2017-Nov-30 02:52N 34°09' E 135°12'0 0.0
2017-Nov-30 02:13N 34°09' E 135°12'0 0.0
2017-Nov-30 01:52N 34°09' E 135°12'0 0.0
2017-Nov-30 01:22N 34°09' E 135°12'0 0.0
2017-Nov-30 00:55N 34°09' E 135°12'0 0.1
2017-Nov-30 00:29N 34°09' E 135°12'6 8.3
2017-Nov-29 23:49N 34°10' E 135°06'4 8.5
2017-Nov-29 23:18N 34°14' E 135°04'3 9.1
2017-Nov-29 22:59N 34°17' E 135°04'4 9.5
2017-Nov-29 22:30N 34°21' E 135°06'5 9.1
2017-Nov-29 22:00N 34°24' E 135°10'4 9.0
2017-Nov-29 21:30N 34°28' E 135°14'5 9.1
2017-Nov-29 21:00N 34°31' E 135°18'5 9.4
2017-Nov-29 20:30N 34°34' E 135°22'4 8.9
2017-Nov-29 20:00N 34°37' E 135°26'  

Dump ship's entire track history